createdAt,value
2022-09-26T00:01:35.093Z,1.27
2022-09-26T00:04:06.705Z,2.00
2022-09-26T00:06:34.600Z,2.13
2022-09-26T00:09:02.048Z,1.60
2022-09-26T00:11:32.245Z,1.92
2022-09-26T00:14:02.170Z,1.77
2022-09-26T00:16:29.555Z,1.88
2022-09-26T00:19:01.259Z,2.10
2022-09-26T00:21:30.219Z,1.92
2022-09-26T00:23:58.908Z,1.73
2022-09-26T00:26:27.429Z,1.92
2022-09-26T00:28:55.735Z,1.90
2022-09-26T00:31:30.978Z,1.85
2022-09-26T00:33:59.537Z,1.80
2022-09-26T00:36:37.408Z,1.80
2022-09-26T00:39:06.515Z,2.05
2022-09-26T00:41:34.398Z,1.55
2022-09-26T00:44:01.978Z,1.65
2022-09-26T00:46:47.303Z,1.60
2022-09-26T00:49:29.205Z,1.90
2022-09-26T00:52:04.244Z,1.50
2022-09-26T00:54:34.786Z,1.67
2022-09-26T00:57:08.038Z,1.60
2022-09-26T00:59:46.618Z,1.38
2022-09-26T01:02:15.111Z,1.70
2022-09-26T01:04:44.640Z,1.45
2022-09-26T01:07:19.826Z,1.73
2022-09-26T01:09:48.095Z,1.40
2022-09-26T01:12:16.908Z,1.60
2022-09-26T01:14:45.831Z,1.75
2022-09-26T01:17:15.111Z,1.90
2022-09-26T01:20:09.478Z,1.70
2022-09-26T01:22:42.560Z,1.83
2022-09-26T01:25:28.078Z,2.22
2022-09-26T01:28:32.811Z,2.05
2022-09-26T01:31:18.971Z,2.00
2022-09-26T01:34:07.592Z,1.90
2022-09-26T01:37:01.331Z,2.10
2022-09-26T01:39:46.635Z,1.95
2022-09-26T01:42:39.068Z,1.70
2022-09-26T01:45:19.844Z,2.00
2022-09-26T01:48:18.464Z,2.50
2022-09-26T01:50:50.047Z,1.83
2022-09-26T01:53:43.822Z,1.60
2022-09-26T01:56:17.719Z,2.17
2022-09-26T01:59:03.902Z,1.88
2022-09-26T02:01:35.304Z,2.03
2022-09-26T02:04:10.556Z,2.22
2022-09-26T02:06:52.909Z,2.60
2022-09-26T02:09:44.841Z,2.08
2022-09-26T02:12:19.724Z,2.45
2022-09-26T02:14:49.664Z,2.15
2022-09-26T02:17:22.862Z,2.05
2022-09-26T02:19:59.144Z,2.47
2022-09-26T02:22:34.175Z,2.42
2022-09-26T02:25:04.371Z,2.30
2022-09-26T02:27:32.222Z,2.30
2022-09-26T02:29:59.885Z,2.30
2022-09-26T02:32:30.651Z,2.25
2022-09-26T02:34:59.865Z,1.95
2022-09-26T02:37:31.013Z,1.88
2022-09-26T02:39:59.094Z,2.53
2022-09-26T02:42:46.494Z,2.28
2022-09-26T02:45:36.065Z,3.00
2022-09-26T02:48:23.213Z,2.30
2022-09-26T02:51:21.218Z,2.33
2022-09-26T02:54:01.203Z,2.65
2022-09-26T02:56:46.009Z,2.50
2022-09-26T02:59:36.995Z,2.63
2022-09-26T03:02:15.860Z,2.60
2022-09-26T03:04:53.264Z,2.47
2022-09-26T03:07:34.666Z,2.70
2022-09-26T03:10:05.275Z,2.50
2022-09-26T03:12:34.071Z,2.50
2022-09-26T03:15:04.161Z,2.60
2022-09-26T03:17:34.229Z,2.55
2022-09-26T03:20:11.470Z,2.50
2022-09-26T03:22:40.744Z,2.60
2022-09-26T03:25:11.965Z,1.92
2022-09-26T03:27:45.791Z,2.53
2022-09-26T03:30:15.566Z,2.60
2022-09-26T03:32:52.336Z,2.78
2022-09-26T03:35:20.429Z,2.90
2022-09-26T03:37:48.441Z,2.22
2022-09-26T03:40:15.920Z,2.65
2022-09-26T03:43:15.509Z,2.72
2022-09-26T03:45:42.849Z,2.38
2022-09-26T03:48:17.742Z,2.70
2022-09-26T03:50:45.495Z,2.55
2022-09-26T03:53:13.409Z,2.38
2022-09-26T03:55:40.764Z,2.17
2022-09-26T03:58:08.552Z,2.33
2022-09-26T04:00:39.680Z,2.33
2022-09-26T04:03:07.755Z,2.60
2022-09-26T04:05:40.267Z,1.52
2022-09-26T04:08:07.768Z,2.67
2022-09-26T04:10:36.038Z,2.38
2022-09-26T04:13:05.435Z,2.13
2022-09-26T04:15:32.875Z,2.30
2022-09-26T04:18:12.345Z,2.40
2022-09-26T04:20:40.014Z,2.20
2022-09-26T04:23:07.352Z,2.47
2022-09-26T04:25:37.568Z,2.70
2022-09-26T04:28:04.954Z,2.33
2022-09-26T04:30:32.312Z,2.30
2022-09-26T04:33:01.605Z,2.50
2022-09-26T04:35:47.784Z,2.17
2022-09-26T04:38:15.572Z,2.33
2022-09-26T04:40:43.568Z,2.47
2022-09-26T04:43:12.805Z,2.33
2022-09-26T04:45:42.685Z,2.42
2022-09-26T04:48:10.531Z,1.90
2022-09-26T04:50:55.018Z,1.98
2022-09-26T04:53:23.321Z,2.15
2022-09-26T04:56:02.669Z,2.03
2022-09-26T04:58:32.412Z,1.85
2022-09-26T05:01:07.961Z,2.13
2022-09-26T05:03:55.653Z,1.60
2022-09-26T05:06:23.459Z,1.73
2022-09-26T05:08:50.992Z,1.77
2022-09-26T05:11:25.060Z,1.60
2022-09-26T05:13:54.143Z,1.80
2022-09-26T05:16:23.945Z,1.80
2022-09-26T05:18:52.448Z,1.52
2022-09-26T05:21:20.170Z,1.88
2022-09-26T05:24:06.789Z,1.70
2022-09-26T05:26:50.790Z,2.00
2022-09-26T05:29:21.037Z,1.80
2022-09-26T05:32:01.838Z,1.60
2022-09-26T05:34:33.718Z,1.70
2022-09-26T05:37:01.889Z,1.90
2022-09-26T05:39:47.558Z,1.60
2022-09-26T05:42:15.424Z,1.70
2022-09-26T05:44:43.689Z,1.90
2022-09-26T05:47:11.656Z,1.50
2022-09-26T05:49:39.152Z,1.75
2022-09-26T05:52:09.602Z,2.15
2022-09-26T05:54:36.935Z,1.90
2022-09-26T05:57:16.545Z,1.95
2022-09-26T05:59:47.274Z,1.98
2022-09-26T06:02:26.884Z,1.98
2022-09-26T06:05:17.513Z,1.98
2022-09-26T06:08:10.889Z,1.63
2022-09-26T06:11:07.185Z,2.08
2022-09-26T06:13:36.806Z,1.77
2022-09-26T06:16:10.868Z,2.08
2022-09-26T06:18:39.317Z,2.08
2022-09-26T06:21:09.536Z,2.17
2022-09-26T06:23:37.358Z,1.77
2022-09-26T06:26:10.262Z,2.03
2022-09-26T06:28:39.369Z,2.08
2022-09-26T06:31:11.851Z,1.95
2022-09-26T06:33:58.636Z,1.90
2022-09-26T06:36:55.132Z,2.03
2022-09-26T06:39:22.926Z,2.33
2022-09-26T06:41:51.319Z,1.83
2022-09-26T06:44:29.867Z,2.00
2022-09-26T06:47:15.824Z,1.67
2022-09-26T06:49:45.214Z,2.00
2022-09-26T06:52:24.093Z,2.00
2022-09-26T06:54:51.447Z,1.90
2022-09-26T06:57:18.754Z,1.58
2022-09-26T06:59:46.064Z,1.95
2022-09-26T07:02:27.021Z,1.98
2022-09-26T07:05:02.924Z,1.90
2022-09-26T07:07:41.930Z,2.05
2022-09-26T07:10:15.949Z,2.10
2022-09-26T07:12:53.065Z,1.75
2022-09-26T07:15:21.195Z,2.10
2022-09-26T07:17:49.231Z,1.88
2022-09-26T07:20:32.189Z,1.80
2022-09-26T07:23:03.731Z,1.77
2022-09-26T07:25:32.029Z,2.20
2022-09-26T07:28:01.956Z,1.90
2022-09-26T07:30:49.735Z,1.85
2022-09-26T07:33:41.445Z,2.10
2022-09-26T07:36:11.126Z,1.52
2022-09-26T07:38:38.687Z,1.88
2022-09-26T07:41:10.854Z,1.90
2022-09-26T07:46:46.329Z,2.10
2022-09-26T07:49:32.336Z,2.08
2022-09-26T07:52:22.666Z,1.90
2022-09-26T07:55:12.459Z,1.98
2022-09-26T07:57:59.432Z,1.70
2022-09-26T08:00:45.509Z,1.63
2022-09-26T08:03:29.525Z,2.00
2022-09-26T08:06:01.115Z,2.15
2022-09-26T08:08:30.508Z,1.80
2022-09-26T08:11:04.233Z,1.70
2022-09-26T08:13:37.751Z,2.00
2022-09-26T08:16:28.459Z,2.10
2022-09-26T08:18:59.139Z,1.90
2022-09-26T08:21:26.712Z,2.20
2022-09-26T08:23:57.245Z,1.75
2022-09-26T08:26:33.691Z,2.30
2022-09-26T08:29:11.245Z,2.00
2022-09-26T08:31:39.550Z,1.92
2022-09-26T08:34:08.066Z,2.10
2022-09-26T08:36:37.013Z,2.05
2022-09-26T08:39:36.904Z,2.05
2022-09-26T08:42:52.145Z,2.33
2022-09-26T08:46:07.460Z,1.92
2022-09-26T08:49:19.102Z,1.77
2022-09-26T08:51:52.216Z,2.47
2022-09-26T08:54:34.662Z,2.23
2022-09-26T08:57:26.840Z,2.10
2022-09-26T08:59:54.748Z,2.08
2022-09-26T09:02:30.414Z,2.20
2022-09-26T09:05:11.554Z,1.95
2022-09-26T09:07:43.301Z,2.25
2022-09-26T09:10:18.059Z,2.20
2022-09-26T09:13:05.987Z,2.35
2022-09-26T09:16:23.212Z,2.20
2022-09-26T09:19:22.568Z,2.35
2022-09-26T09:22:41.709Z,2.15
2022-09-26T09:25:54.603Z,1.50
2022-09-26T09:28:33.727Z,2.47
2022-09-26T09:31:13.185Z,2.13
2022-09-26T09:34:10.450Z,2.17
2022-09-26T09:37:08.678Z,2.40
2022-09-26T09:40:03.126Z,2.20
2022-09-26T09:42:41.754Z,2.55
2022-09-26T09:45:17.006Z,2.45
2022-09-26T09:47:44.923Z,2.65
2022-09-26T09:50:15.289Z,2.50
2022-09-26T09:52:49.871Z,2.15
2022-09-26T09:58:11.768Z,2.45
2022-09-26T10:00:51.004Z,1.92
2022-09-26T10:03:37.898Z,2.72
2022-09-26T10:06:08.541Z,2.38
2022-09-26T10:08:53.475Z,2.45
2022-09-26T10:11:41.618Z,3.30
2022-09-26T10:14:35.847Z,2.45
2022-09-26T10:17:15.271Z,3.00
2022-09-26T10:20:01.332Z,2.78
2022-09-26T10:22:44.785Z,3.00
2022-09-26T10:25:27.865Z,2.75
2022-09-26T10:28:01.120Z,1.73
2022-09-26T10:30:34.110Z,2.80
2022-09-26T10:33:22.321Z,2.67
2022-09-26T10:35:53.983Z,3.42
2022-09-26T10:38:31.266Z,3.10
2022-09-26T10:41:23.275Z,2.80
2022-09-26T10:43:54.834Z,2.88
2022-09-26T10:46:45.298Z,3.05
2022-09-26T10:49:40.330Z,2.70
2022-09-26T10:52:40.079Z,3.65
2022-09-26T10:55:12.542Z,3.00
2022-09-26T10:57:46.595Z,3.38
2022-09-26T11:00:39.039Z,2.85
2022-09-26T11:03:32.387Z,3.25
2022-09-26T11:06:40.546Z,2.92
2022-09-26T11:09:20.609Z,2.45
2022-09-26T11:12:30.750Z,3.20
2022-09-26T11:15:12.278Z,2.92
2022-09-26T11:17:48.142Z,3.25
2022-09-26T11:20:50.646Z,2.97
2022-09-26T11:23:41.417Z,3.30
2022-09-26T11:26:18.183Z,2.72
2022-09-26T11:28:47.298Z,2.92
2022-09-26T11:31:22.797Z,2.83
2022-09-26T11:34:04.265Z,3.28
2022-09-26T11:37:10.061Z,3.00
2022-09-26T11:39:46.600Z,3.83
2022-09-26T11:42:27.374Z,2.47
2022-09-26T11:44:58.926Z,3.17
2022-09-26T11:48:20.222Z,3.35
2022-09-26T11:51:45.646Z,3.03
2022-09-26T11:54:23.496Z,3.90
2022-09-26T11:56:57.717Z,4.30
2022-09-26T11:59:56.725Z,3.47
2022-09-26T12:02:56.080Z,4.43
2022-09-26T12:05:32.273Z,3.75
2022-09-26T12:08:21.668Z,3.75
2022-09-26T12:11:07.061Z,4.07
2022-09-26T12:13:52.271Z,3.85
2022-09-26T12:16:24.501Z,4.28
2022-09-26T12:19:32.001Z,4.00
2022-09-26T12:22:29.144Z,3.70
2022-09-26T12:24:59.163Z,3.40
2022-09-26T12:27:49.839Z,4.20
2022-09-26T12:30:33.388Z,4.00
2022-09-26T12:33:00.635Z,3.78
2022-09-26T12:35:45.568Z,3.55
2022-09-26T12:41:32.115Z,3.22
2022-09-26T12:44:31.310Z,3.05
2022-09-26T12:46:58.684Z,3.90
2022-09-26T12:49:55.260Z,4.00
2022-09-26T12:52:50.704Z,4.18
2022-09-26T12:58:39.006Z,4.10
2022-09-26T13:01:16.353Z,3.65
2022-09-26T13:04:12.485Z,3.55
2022-09-26T13:07:18.947Z,3.20
2022-09-26T13:10:15.283Z,3.13
2022-09-26T13:15:35.411Z,2.75
2022-09-26T13:18:15.019Z,2.63
2022-09-26T13:20:53.251Z,2.60
2022-09-26T13:23:31.518Z,2.70
2022-09-26T13:26:17.705Z,2.78
2022-09-26T13:29:23.348Z,2.60
2022-09-26T13:35:04.044Z,2.10
2022-09-26T13:37:41.684Z,2.30
2022-09-26T13:40:21.525Z,2.63
2022-09-26T13:43:24.160Z,2.70
2022-09-26T13:46:10.656Z,2.45
2022-09-26T13:49:01.611Z,2.30
2022-09-26T13:51:40.662Z,2.75
2022-09-26T13:54:26.929Z,2.50
2022-09-26T13:56:55.918Z,2.63
2022-09-26T13:59:27.220Z,2.90
2022-09-26T14:02:23.379Z,2.65
2022-09-26T14:05:12.902Z,2.60
2022-09-26T14:07:58.545Z,2.92
2022-09-26T14:10:43.279Z,3.03
2022-09-26T14:13:10.588Z,3.60
2022-09-26T14:15:47.360Z,3.80
2022-09-26T14:18:34.335Z,3.08
2022-09-26T14:21:12.729Z,3.55
2022-09-26T14:23:46.623Z,3.05
2022-09-26T14:26:22.091Z,2.85
2022-09-26T14:28:55.187Z,2.90
2022-09-26T14:31:25.794Z,2.65
2022-09-26T14:34:12.030Z,2.78
2022-09-26T14:36:39.638Z,3.10
2022-09-26T14:39:07.040Z,2.67
2022-09-26T14:41:36.431Z,2.30
2022-09-26T14:44:16.247Z,2.75
2022-09-26T14:46:44.213Z,3.30
2022-09-26T14:49:28.885Z,3.13
2022-09-26T14:52:00.490Z,3.42
2022-09-26T14:54:39.836Z,3.50
2022-09-26T14:57:21.048Z,3.42
2022-09-26T14:59:49.590Z,3.35
2022-09-26T15:02:38.581Z,3.63
2022-09-26T15:05:14.630Z,2.90
2022-09-26T15:07:54.306Z,2.70
2022-09-26T15:10:41.798Z,2.85
2022-09-26T15:13:18.014Z,2.50
2022-09-26T15:16:13.753Z,2.88
2022-09-26T15:18:45.900Z,2.20
2022-09-26T15:21:28.151Z,2.55
2022-09-26T15:23:57.490Z,2.53
2022-09-26T15:26:31.843Z,2.38
2022-09-26T15:29:00.141Z,2.28
2022-09-26T15:31:40.555Z,2.33
2022-09-26T15:34:23.218Z,2.58
2022-09-26T15:36:55.719Z,2.33
2022-09-26T15:39:39.235Z,2.17
2022-09-26T15:42:40.778Z,2.50
2022-09-26T15:45:17.134Z,2.60
2022-09-26T15:47:44.669Z,2.70
2022-09-26T15:50:16.908Z,2.60
2022-09-26T15:53:02.025Z,2.25
2022-09-26T15:55:40.817Z,2.47
2022-09-26T15:58:15.210Z,2.00
2022-09-26T16:00:48.238Z,3.22
2022-09-26T16:03:27.649Z,2.80
2022-09-26T16:05:55.372Z,2.72
2022-09-26T16:08:26.462Z,2.58
2022-09-26T16:10:56.550Z,2.53
2022-09-26T16:13:26.503Z,2.42
2022-09-26T16:16:03.096Z,2.00
2022-09-26T16:18:37.630Z,2.20
2022-09-26T16:21:15.321Z,2.30
2022-09-26T16:23:51.271Z,2.53
2022-09-26T16:26:38.098Z,2.63
2022-09-26T16:29:06.425Z,2.45
2022-09-26T16:31:47.532Z,2.38
2022-09-26T16:34:26.187Z,2.28
2022-09-26T16:36:53.727Z,2.40
2022-09-26T16:39:25.165Z,2.60
2022-09-26T16:42:03.066Z,2.92
2022-09-26T16:44:41.453Z,2.63
2022-09-26T16:47:33.672Z,2.80
2022-09-26T16:50:37.136Z,2.70
2022-09-26T16:53:09.000Z,2.03
2022-09-26T16:55:37.424Z,2.13
2022-09-26T16:58:05.570Z,2.33
2022-09-26T17:00:53.555Z,2.47
2022-09-26T17:03:30.714Z,2.10
2022-09-26T17:05:59.672Z,2.17
2022-09-26T17:08:28.281Z,2.80
2022-09-26T17:10:58.537Z,2.42
2022-09-26T17:13:28.508Z,2.58
2022-09-26T17:15:58.142Z,2.33
2022-09-26T17:18:33.383Z,2.00
2022-09-26T17:21:01.403Z,1.95
2022-09-26T17:23:45.300Z,2.40
2022-09-26T17:26:21.642Z,2.03
2022-09-26T17:28:50.620Z,2.40
2022-09-26T17:31:21.511Z,1.98
2022-09-26T17:33:52.275Z,2.22
2022-09-26T17:36:26.151Z,2.40
2022-09-26T17:38:54.591Z,2.23
2022-09-26T17:41:23.030Z,3.13
2022-09-26T17:43:58.230Z,2.03
2022-09-26T17:46:25.738Z,2.47
2022-09-26T17:48:54.638Z,2.00
2022-09-26T17:51:22.787Z,2.38
2022-09-26T17:53:52.367Z,1.73
2022-09-26T17:56:20.675Z,1.70
2022-09-26T17:58:49.352Z,2.00
2022-09-26T18:01:30.181Z,1.23
2022-09-26T18:04:01.019Z,1.42
2022-09-26T18:06:31.387Z,2.13
2022-09-26T18:09:05.314Z,1.80
2022-09-26T18:11:34.473Z,2.25
2022-09-26T18:14:04.572Z,2.25
2022-09-26T18:16:31.859Z,1.73
2022-09-26T18:19:03.417Z,1.50
2022-09-26T18:21:34.879Z,1.73
2022-09-26T18:24:06.645Z,2.15
2022-09-26T18:26:38.122Z,2.05
2022-09-26T18:29:08.158Z,1.60
2022-09-26T18:31:40.956Z,1.48
2022-09-26T18:34:19.803Z,1.90
2022-09-26T18:36:49.887Z,1.70
2022-09-26T18:39:17.438Z,1.42
2022-09-26T18:41:45.246Z,1.60
2022-09-26T18:44:17.437Z,1.38
2022-09-26T18:46:46.957Z,1.98
2022-09-26T18:49:15.301Z,1.70
2022-09-26T18:51:42.766Z,1.98
2022-09-26T18:54:15.704Z,2.10
2022-09-26T18:57:01.674Z,2.28
2022-09-26T18:59:32.104Z,1.67
2022-09-26T19:02:01.279Z,2.05
2022-09-26T19:04:30.687Z,2.13
2022-09-26T19:07:01.096Z,1.75
2022-09-26T19:09:33.140Z,1.45
2022-09-26T19:12:01.512Z,2.10
2022-09-26T19:14:30.325Z,1.95
2022-09-26T19:16:58.854Z,1.45
2022-09-26T19:19:28.609Z,1.92
2022-09-26T19:22:03.232Z,2.00
2022-09-26T19:24:37.775Z,1.70
2022-09-26T19:27:07.488Z,1.80
2022-09-26T19:30:02.445Z,2.25
2022-09-26T19:32:39.960Z,1.83
2022-09-26T19:35:18.198Z,1.63
2022-09-26T19:37:45.564Z,1.60
2022-09-26T19:40:13.935Z,1.45
2022-09-26T19:42:42.347Z,1.40
2022-09-26T19:45:11.027Z,1.25
2022-09-26T19:47:41.341Z,1.27
2022-09-26T19:50:17.813Z,1.10
2022-09-26T19:52:45.428Z,1.27
2022-09-26T19:55:18.854Z,1.42
2022-09-26T19:57:46.246Z,1.38
2022-09-26T20:00:14.296Z,0.80
2022-09-26T20:02:42.337Z,1.27
2022-09-26T20:05:19.173Z,1.50
2022-09-26T20:07:47.296Z,1.83
2022-09-26T20:10:25.411Z,1.40
2022-09-26T20:12:53.821Z,1.45
2022-09-26T20:15:21.299Z,1.23
2022-09-26T20:17:49.244Z,1.25
2022-09-26T20:20:18.861Z,1.30
2022-09-26T20:22:46.605Z,1.40
2022-09-26T20:25:27.075Z,1.40
2022-09-26T20:27:55.817Z,1.20
2022-09-26T20:30:42.472Z,1.38
2022-09-26T20:33:10.495Z,1.50
2022-09-26T20:35:43.145Z,1.73
2022-09-26T20:38:41.788Z,1.52
2022-09-26T20:41:22.672Z,1.20
2022-09-26T20:43:58.595Z,1.30
2022-09-26T20:46:26.541Z,1.42
2022-09-26T20:48:53.960Z,1.20
2022-09-26T20:51:27.185Z,0.85
2022-09-26T20:53:54.513Z,1.27
2022-09-26T20:56:21.927Z,2.22
2022-09-26T20:58:49.862Z,1.73
2022-09-26T21:01:19.740Z,1.48
2022-09-26T21:03:55.266Z,1.73
2022-09-26T21:06:26.712Z,2.10
2022-09-26T21:08:54.070Z,1.63
2022-09-26T21:11:22.354Z,1.80
2022-09-26T21:13:50.099Z,1.50
2022-09-26T21:16:19.804Z,1.17
2022-09-26T21:18:49.596Z,1.38
2022-09-26T21:21:28.035Z,1.30
2022-09-26T21:23:59.455Z,1.50
2022-09-26T21:26:28.624Z,1.23
2022-09-26T21:28:56.387Z,1.40
2022-09-26T21:31:32.581Z,1.23
2022-09-26T21:34:00.624Z,1.13
2022-09-26T21:36:34.877Z,1.00
2022-09-26T21:39:03.489Z,1.17
2022-09-26T21:41:30.812Z,1.02
2022-09-26T21:44:05.845Z,1.45
2022-09-26T21:46:36.294Z,1.27
2022-09-26T21:49:03.729Z,1.88
2022-09-26T21:51:31.648Z,1.23
2022-09-26T21:54:07.178Z,1.00
2022-09-26T21:56:40.662Z,1.02
2022-09-26T21:59:08.053Z,0.95
2022-09-26T22:01:35.446Z,1.00
2022-09-26T22:04:03.531Z,0.80
2022-09-26T22:06:32.529Z,0.90
2022-09-26T22:08:59.806Z,0.70
2022-09-26T22:11:27.141Z,1.13
2022-09-26T22:13:55.543Z,0.98
2022-09-26T22:16:22.934Z,0.85
2022-09-26T22:18:50.416Z,1.00
2022-09-26T22:21:17.748Z,0.75
2022-09-26T22:23:45.074Z,0.90
2022-09-26T22:26:12.399Z,0.50
2022-09-26T22:28:39.835Z,0.93
2022-09-26T22:31:07.271Z,0.82
2022-09-26T22:33:34.619Z,1.10
2022-09-26T22:36:02.203Z,0.93
2022-09-26T22:38:29.466Z,1.25
2022-09-26T22:41:03.150Z,0.98
2022-09-26T22:43:31.955Z,0.90
2022-09-26T22:46:10.469Z,1.63
2022-09-26T22:48:41.205Z,1.25
2022-09-26T22:51:10.444Z,1.30
2022-09-26T22:53:39.244Z,0.80
2022-09-26T22:56:08.109Z,0.80
2022-09-26T22:58:42.646Z,0.45
2022-09-26T23:01:12.953Z,0.30
2022-09-26T23:03:41.329Z,0.43
2022-09-26T23:06:09.353Z,0.50
2022-09-26T23:08:37.235Z,0.68
2022-09-26T23:11:05.441Z,0.55
2022-09-26T23:13:34.347Z,0.70
2022-09-26T23:16:12.978Z,0.80
2022-09-26T23:18:41.758Z,1.00
2022-09-26T23:21:14.455Z,0.80
2022-09-26T23:23:46.980Z,0.60
2022-09-26T23:26:25.402Z,0.60
2022-09-26T23:28:54.284Z,0.70
2022-09-26T23:31:22.936Z,0.68
2022-09-26T23:33:50.330Z,0.52
2022-09-26T23:36:18.018Z,1.60
2022-09-26T23:38:45.510Z,0.80
2022-09-26T23:41:13.608Z,0.50
2022-09-26T23:43:40.986Z,0.90
2022-09-26T23:46:09.559Z,0.75
2022-09-26T23:48:37.232Z,0.85
2022-09-26T23:51:04.921Z,0.80
2022-09-26T23:53:32.712Z,0.90
2022-09-26T23:56:11.770Z,0.95
2022-09-26T23:58:39.289Z,0.93
